createdAt,value
2019-04-14T00:00:23.008Z,36.90
2019-04-14T00:02:55.483Z,36.25
2019-04-14T00:05:25.682Z,38.28
2019-04-14T00:07:55.995Z,42.53
2019-04-14T00:10:26.715Z,42.70
2019-04-14T00:12:57.714Z,41.13
2019-04-14T00:15:33.038Z,45.12
2019-04-14T00:17:59.684Z,48.02
2019-04-14T00:20:29.373Z,45.75
2019-04-14T00:22:59.778Z,47.85
2019-04-14T00:25:30.507Z,45.08
2019-04-14T00:28:00.774Z,46.77
2019-04-14T00:30:31.578Z,48.25
2019-04-14T00:33:09.106Z,50.80
2019-04-14T00:35:47.192Z,46.42
2019-04-14T00:38:25.896Z,39.90
2019-04-14T00:40:58.307Z,35.90
2019-04-14T00:43:30.886Z,34.33
2019-04-14T00:46:17.389Z,38.53
2019-04-14T00:48:49.664Z,34.23
2019-04-14T00:51:19.928Z,30.68
2019-04-14T00:53:49.694Z,30.32
2019-04-14T00:56:19.487Z,30.23
2019-04-14T00:58:49.689Z,27.50
2019-04-14T01:01:19.766Z,29.10
2019-04-14T01:03:50.549Z,28.57
2019-04-14T01:06:20.822Z,28.07
2019-04-14T01:08:51.128Z,31.55
2019-04-14T01:11:20.945Z,28.67
2019-04-14T01:13:50.827Z,27.35
2019-04-14T01:16:23.418Z,27.02
2019-04-14T01:18:51.816Z,30.97
2019-04-14T01:21:21.766Z,29.25
2019-04-14T01:23:52.340Z,33.98
2019-04-14T01:26:22.557Z,30.12
2019-04-14T01:28:53.114Z,28.32
2019-04-14T01:31:23.048Z,30.90
2019-04-14T01:33:53.378Z,30.60
2019-04-14T01:36:23.457Z,33.28
2019-04-14T01:38:53.641Z,29.02
2019-04-14T01:41:23.903Z,31.25
2019-04-14T01:43:53.952Z,29.42
2019-04-14T01:46:27.986Z,32.53
2019-04-14T01:48:56.344Z,30.60
2019-04-14T01:51:44.206Z,31.07
2019-04-14T01:54:32.348Z,30.65
2019-04-14T01:57:20.001Z,31.45
2019-04-14T01:59:50.337Z,31.02
2019-04-14T02:02:22.691Z,29.90
2019-04-14T02:04:52.913Z,28.42
2019-04-14T02:07:23.333Z,28.60
2019-04-14T02:09:53.345Z,27.07
2019-04-14T02:12:23.517Z,25.88
2019-04-14T02:14:54.087Z,26.97
2019-04-14T02:17:24.207Z,29.10
2019-04-14T02:19:54.649Z,28.32
2019-04-14T02:22:26.571Z,29.63
2019-04-14T02:24:57.091Z,24.18
2019-04-14T02:27:27.502Z,26.07
2019-04-14T02:29:58.252Z,28.90
2019-04-14T02:33:00.296Z,25.95
2019-04-14T02:35:32.657Z,26.15
2019-04-14T02:38:02.252Z,24.82
2019-04-14T02:40:43.973Z,26.95
2019-04-14T02:42:54.249Z,29.07
2019-04-14T02:45:35.158Z,26.57
2019-04-14T02:50:30.297Z,31.33
2019-04-14T02:53:10.957Z,28.57
2019-04-14T02:55:43.104Z,25.55
2019-04-14T02:58:10.464Z,30.70
2019-04-14T03:00:58.517Z,27.52
2019-04-14T03:03:15.994Z,27.60
2019-04-14T03:05:44.422Z,30.25
2019-04-14T03:08:20.341Z,28.57
2019-04-14T03:15:48.233Z,30.95
2019-04-14T03:18:42.779Z,31.37
2019-04-14T03:21:16.926Z,31.05
2019-04-14T03:29:02.394Z,29.77
2019-04-14T03:34:24.250Z,35.20
2019-04-14T03:37:24.074Z,31.80
2019-04-14T03:44:11.769Z,33.18
2019-04-14T03:46:45.322Z,33.42
2019-04-14T03:51:44.716Z,29.92
2019-04-14T03:54:21.703Z,33.60
2019-04-14T03:56:51.434Z,33.95
2019-04-14T03:59:21.884Z,35.90
2019-04-14T04:01:52.299Z,31.15
2019-04-14T04:04:22.726Z,30.68
2019-04-14T04:06:53.159Z,32.95
2019-04-14T04:09:25.628Z,31.93
2019-04-14T04:11:56.347Z,32.48
2019-04-14T04:14:27.100Z,33.45
2019-04-14T04:16:59.489Z,32.98
2019-04-14T04:19:31.581Z,31.15
2019-04-14T04:22:15.071Z,32.38
2019-04-14T04:24:50.017Z,30.97
2019-04-14T04:27:33.167Z,32.25
2019-04-14T04:30:21.005Z,31.60
2019-04-14T04:33:04.447Z,31.45
2019-04-14T04:35:36.875Z,33.50
2019-04-14T04:38:09.587Z,32.67
2019-04-14T04:40:39.739Z,29.87
2019-04-14T04:43:10.154Z,31.17
2019-04-14T04:45:40.803Z,31.00
2019-04-14T04:48:10.874Z,34.43
2019-04-14T04:50:41.023Z,34.18
2019-04-14T04:53:11.500Z,35.28
2019-04-14T04:55:41.684Z,33.08
2019-04-14T04:58:12.076Z,30.75
2019-04-14T05:00:41.897Z,33.13
2019-04-14T05:03:12.459Z,32.55
2019-04-14T05:06:11.341Z,33.50
2019-04-14T05:08:43.486Z,34.75
2019-04-14T05:11:25.068Z,36.65
2019-04-14T05:13:57.565Z,38.83
2019-04-14T05:16:28.162Z,34.03
2019-04-14T05:19:11.424Z,34.13
2019-04-14T05:21:29.985Z,34.10
2019-04-14T05:24:00.899Z,31.60
2019-04-14T05:26:30.863Z,31.85
2019-04-14T05:29:01.429Z,32.80
2019-04-14T05:31:32.098Z,31.57
2019-04-14T05:34:02.228Z,35.38
2019-04-14T05:36:32.507Z,31.93
2019-04-14T05:39:02.504Z,28.87
2019-04-14T05:41:33.377Z,31.02
2019-04-14T05:44:04.676Z,30.68
2019-04-14T05:46:34.231Z,27.67
2019-04-14T05:49:04.385Z,30.77
2019-04-14T05:51:35.187Z,29.37
2019-04-14T05:54:05.664Z,27.90
2019-04-14T05:56:37.537Z,29.15
2019-04-14T05:59:06.771Z,30.15
2019-04-14T06:01:36.643Z,31.17
2019-04-14T06:04:07.108Z,29.55
2019-04-14T06:06:36.829Z,31.48
2019-04-14T06:09:08.683Z,30.57
2019-04-14T06:11:38.295Z,31.07
2019-04-14T06:14:08.007Z,31.52
2019-04-14T06:16:37.627Z,31.77
2019-04-14T06:19:07.222Z,29.32
2019-04-14T06:21:36.831Z,31.40
2019-04-14T06:24:06.540Z,31.30
2019-04-14T06:26:36.149Z,35.20
2019-04-14T06:29:05.860Z,31.75
2019-04-14T06:31:52.261Z,31.97
2019-04-14T06:34:26.378Z,34.70
2019-04-14T06:36:57.621Z,30.75
2019-04-14T06:39:29.582Z,30.30
2019-04-14T06:41:59.294Z,31.37
2019-04-14T06:44:28.831Z,31.37
2019-04-14T06:46:58.388Z,34.58
2019-04-14T06:49:27.927Z,31.37
2019-04-14T06:51:57.478Z,33.30
2019-04-14T06:54:27.128Z,30.62
2019-04-14T06:56:56.739Z,32.17
2019-04-14T06:59:26.347Z,31.15
2019-04-14T07:01:56.055Z,35.10
2019-04-14T07:04:25.856Z,33.90
2019-04-14T07:06:55.478Z,34.65
2019-04-14T07:09:25.082Z,33.02
2019-04-14T07:11:54.825Z,35.90
2019-04-14T07:14:24.605Z,33.65
2019-04-14T07:16:54.213Z,30.48
2019-04-14T07:19:23.820Z,29.45
2019-04-14T07:21:53.429Z,31.77
2019-04-14T07:24:23.041Z,30.30
2019-04-14T07:26:52.647Z,32.20
2019-04-14T07:29:23.586Z,29.90
2019-04-14T07:32:00.667Z,30.08
2019-04-14T07:34:31.913Z,31.48
2019-04-14T07:37:09.097Z,27.30
2019-04-14T07:39:40.348Z,30.05
2019-04-14T07:42:23.675Z,28.35
2019-04-14T07:45:07.107Z,28.65
2019-04-14T07:47:38.352Z,26.20
2019-04-14T07:50:24.754Z,29.02
2019-04-14T07:52:56.105Z,27.02
2019-04-14T07:55:43.762Z,28.70
2019-04-14T07:58:14.978Z,26.48
2019-04-14T08:00:53.177Z,29.12
2019-04-14T08:03:24.541Z,26.82
2019-04-14T08:05:54.146Z,27.30
2019-04-14T08:08:23.857Z,26.00
2019-04-14T08:10:53.464Z,27.95
2019-04-14T08:13:23.276Z,26.40
2019-04-14T08:15:52.987Z,23.67
2019-04-14T08:18:22.699Z,24.77
2019-04-14T08:20:52.307Z,24.60
2019-04-14T08:23:22.015Z,24.05
2019-04-14T08:25:51.740Z,23.87
2019-04-14T08:28:21.525Z,25.57
2019-04-14T08:30:51.146Z,23.98
2019-04-14T08:33:20.966Z,23.92
2019-04-14T08:35:50.669Z,22.77
2019-04-14T08:38:20.276Z,23.90
2019-04-14T08:40:50.498Z,24.50
2019-04-14T08:43:22.749Z,28.02
2019-04-14T08:46:02.822Z,22.42
2019-04-14T08:48:39.905Z,21.25
2019-04-14T08:51:11.151Z,20.97
2019-04-14T08:53:48.256Z,22.70
2019-04-14T08:56:19.830Z,22.17
2019-04-14T08:58:56.769Z,22.42
2019-04-14T09:01:28.118Z,24.02
2019-04-14T09:03:59.364Z,22.45
2019-04-14T09:06:30.721Z,22.90
2019-04-14T09:09:07.708Z,23.52
2019-04-14T09:11:39.043Z,22.10
2019-04-14T09:14:08.764Z,22.98
2019-04-14T09:16:38.359Z,22.02
2019-04-14T09:19:08.211Z,23.42
2019-04-14T09:21:39.009Z,22.52
2019-04-14T09:24:08.619Z,21.50
2019-04-14T09:26:39.258Z,23.18
2019-04-14T09:29:08.858Z,23.50
2019-04-14T09:31:38.466Z,21.27
2019-04-14T09:34:08.071Z,21.15
2019-04-14T09:36:37.887Z,19.85
2019-04-14T09:39:07.903Z,23.95
2019-04-14T09:41:39.664Z,22.65
2019-04-14T09:44:10.292Z,22.25
2019-04-14T09:46:39.903Z,21.87
2019-04-14T09:49:10.533Z,22.50
2019-04-14T09:51:40.242Z,23.47
2019-04-14T09:54:09.952Z,23.45
2019-04-14T09:56:40.685Z,23.07
2019-04-14T09:59:10.396Z,21.02
2019-04-14T10:01:40.009Z,22.15
2019-04-14T10:04:09.612Z,22.32
2019-04-14T10:06:40.905Z,20.90
2019-04-14T10:09:10.468Z,19.60
2019-04-14T10:11:48.481Z,22.20
2019-04-14T10:14:11.525Z,21.82
2019-04-14T10:16:41.134Z,17.57
2019-04-14T10:19:10.742Z,19.15
2019-04-14T10:21:40.657Z,18.60
2019-04-14T10:24:11.806Z,18.75
2019-04-14T10:26:42.536Z,17.85
2019-04-14T10:29:12.373Z,16.55
2019-04-14T10:31:41.955Z,18.30
2019-04-14T10:34:12.695Z,15.75
2019-04-14T10:36:42.300Z,13.98
2019-04-14T10:39:11.905Z,15.93
2019-04-14T10:41:41.719Z,16.45
2019-04-14T10:44:11.326Z,15.55
2019-04-14T10:46:40.933Z,17.25
2019-04-14T10:49:10.541Z,17.42
2019-04-14T10:51:40.258Z,17.60
2019-04-14T10:54:09.859Z,19.20
2019-04-14T10:56:39.467Z,15.65
2019-04-14T10:59:09.077Z,17.77
2019-04-14T11:01:39.809Z,17.25
2019-04-14T11:04:09.621Z,19.07
2019-04-14T11:06:49.676Z,15.83
2019-04-14T11:09:19.282Z,17.32
2019-04-14T11:11:48.890Z,14.15
2019-04-14T11:14:19.018Z,15.95
2019-04-14T11:16:48.822Z,13.22
2019-04-14T11:19:18.431Z,14.45
2019-04-14T11:21:49.163Z,14.15
2019-04-14T11:24:20.411Z,13.10
2019-04-14T11:26:50.122Z,14.13
2019-04-14T11:29:19.742Z,13.32
2019-04-14T11:31:51.078Z,13.38
2019-04-14T11:34:34.307Z,11.20
2019-04-14T11:37:11.901Z,11.30
2019-04-14T11:39:42.837Z,10.98
2019-04-14T11:42:12.960Z,9.68
2019-04-14T11:44:42.569Z,10.55
2019-04-14T11:47:12.177Z,10.90
2019-04-14T11:49:41.871Z,9.43
2019-04-14T11:52:11.597Z,11.20
2019-04-14T11:54:43.361Z,10.93
2019-04-14T11:57:13.055Z,12.05
2019-04-14T11:59:46.869Z,10.65
2019-04-14T12:02:18.422Z,12.25
2019-04-14T12:04:51.820Z,9.80
2019-04-14T12:07:26.029Z,10.23
2019-04-14T12:09:57.694Z,10.93
2019-04-14T12:12:27.303Z,10.78
2019-04-14T12:14:57.010Z,10.58
2019-04-14T12:17:26.623Z,12.93
2019-04-14T12:19:59.198Z,10.45
2019-04-14T12:22:28.818Z,9.90
2019-04-14T12:24:58.411Z,9.50
2019-04-14T12:27:28.123Z,10.75
2019-04-14T12:29:58.857Z,12.30
2019-04-14T12:32:30.196Z,13.18
2019-04-14T12:34:59.812Z,12.07
2019-04-14T12:37:29.421Z,10.78
2019-04-14T12:39:59.029Z,11.25
2019-04-14T12:42:47.379Z,10.78
2019-04-14T12:45:30.605Z,12.20
2019-04-14T12:48:01.919Z,14.47
2019-04-14T12:50:33.300Z,11.43
2019-04-14T12:53:03.115Z,13.15
2019-04-14T12:55:32.823Z,12.33
2019-04-14T12:58:06.725Z,12.47
2019-04-14T13:00:38.082Z,13.93
2019-04-14T13:03:07.795Z,13.65
2019-04-14T13:05:39.556Z,12.25
2019-04-14T13:08:09.582Z,13.45
2019-04-14T13:10:42.492Z,13.90
2019-04-14T13:13:11.956Z,11.93
2019-04-14T13:15:41.976Z,12.58
2019-04-14T13:18:11.582Z,11.05
2019-04-14T13:20:41.191Z,10.35
2019-04-14T13:23:10.800Z,11.12
2019-04-14T13:25:43.580Z,11.25
2019-04-14T13:28:14.013Z,10.53
2019-04-14T13:30:47.194Z,9.40
2019-04-14T13:33:16.930Z,9.13
2019-04-14T13:35:46.619Z,10.08
2019-04-14T13:38:16.230Z,9.95
2019-04-14T13:40:45.835Z,10.32
2019-04-14T13:43:19.530Z,11.12
2019-04-14T13:45:49.853Z,10.15
2019-04-14T13:48:19.471Z,9.23
2019-04-14T13:50:54.673Z,9.48
2019-04-14T13:53:21.661Z,9.05
2019-04-14T13:55:57.482Z,9.90
2019-04-14T13:58:27.118Z,9.75
2019-04-14T14:00:58.161Z,9.98
2019-04-14T14:03:27.872Z,11.22
2019-04-14T14:05:58.000Z,8.60
2019-04-14T14:08:28.113Z,9.10
2019-04-14T14:10:59.972Z,11.35
2019-04-14T14:13:38.181Z,9.25
2019-04-14T14:16:18.753Z,7.85
2019-04-14T14:19:08.221Z,8.40
2019-04-14T14:21:39.904Z,8.30
2019-04-14T14:24:22.116Z,7.65
2019-04-14T14:26:53.315Z,9.43
2019-04-14T14:29:23.354Z,8.65
2019-04-14T14:31:53.567Z,7.03
2019-04-14T14:34:23.479Z,8.10
2019-04-14T14:36:53.088Z,7.90
2019-04-14T14:39:22.797Z,7.62
2019-04-14T14:41:52.406Z,7.47
2019-04-14T14:44:23.652Z,6.50
2019-04-14T14:46:54.899Z,8.48
2019-04-14T14:49:26.144Z,7.15
2019-04-14T14:51:57.391Z,7.17
2019-04-14T14:54:26.984Z,8.48
2019-04-14T14:56:56.629Z,6.75
2019-04-14T14:59:26.324Z,9.95
2019-04-14T15:01:56.017Z,8.18
2019-04-14T15:04:26.045Z,6.83
2019-04-14T15:06:55.671Z,6.85
2019-04-14T15:09:25.261Z,6.85
2019-04-14T15:11:54.869Z,8.35
2019-04-14T15:14:24.479Z,7.25
2019-04-14T15:16:54.289Z,6.62
2019-04-14T15:19:24.087Z,7.00
2019-04-14T15:21:53.710Z,7.03
2019-04-14T15:24:23.317Z,6.87
2019-04-14T15:26:52.928Z,7.60
2019-04-14T15:29:22.535Z,8.93
2019-04-14T15:31:52.346Z,7.25
2019-04-14T15:34:21.953Z,6.80
2019-04-14T15:36:54.531Z,7.35
2019-04-14T15:39:24.138Z,5.50
2019-04-14T15:41:53.747Z,6.20
2019-04-14T15:44:23.272Z,6.60
2019-04-14T15:46:52.861Z,6.33
2019-04-14T15:49:22.469Z,7.95
2019-04-14T15:51:52.178Z,6.42
2019-04-14T15:54:21.789Z,6.40
2019-04-14T15:56:58.766Z,7.00
2019-04-14T15:59:38.922Z,6.42
2019-04-14T16:02:16.312Z,6.83
2019-04-14T16:04:53.498Z,5.05
2019-04-14T16:07:44.202Z,5.78
2019-04-14T16:10:15.494Z,4.60
2019-04-14T16:12:49.674Z,4.72
2019-04-14T16:15:39.341Z,5.90
2019-04-14T16:18:26.869Z,5.70
2019-04-14T16:20:58.012Z,5.22
2019-04-14T16:23:27.742Z,5.30
2019-04-14T16:26:15.251Z,5.75
2019-04-14T16:28:46.599Z,5.00
2019-04-14T16:31:34.537Z,6.08
2019-04-14T16:34:20.941Z,6.33
2019-04-14T16:36:52.289Z,4.70
2019-04-14T16:39:22.045Z,6.17
2019-04-14T16:41:52.663Z,5.37
2019-04-14T16:44:22.342Z,6.53
2019-04-14T16:46:53.074Z,7.75
2019-04-14T16:49:22.784Z,4.70
2019-04-14T16:51:54.135Z,4.67
2019-04-14T16:54:25.383Z,4.70
2019-04-14T16:57:02.260Z,6.25
2019-04-14T16:59:32.070Z,5.53
2019-04-14T17:02:10.757Z,5.78
2019-04-14T17:04:33.949Z,6.47
2019-04-14T17:07:03.661Z,5.37
2019-04-14T17:09:33.471Z,5.22
2019-04-14T17:12:03.288Z,4.65
2019-04-14T17:14:36.207Z,4.75
2019-04-14T17:17:10.371Z,7.60
2019-04-14T17:19:57.250Z,6.87
2019-04-14T17:22:29.877Z,5.10
2019-04-14T17:25:10.031Z,5.75
2019-04-14T17:27:51.006Z,6.37
2019-04-14T17:30:25.424Z,5.22
2019-04-14T17:33:05.275Z,6.35
2019-04-14T17:35:40.515Z,5.62
2019-04-14T17:38:12.158Z,7.08
2019-04-14T17:40:45.976Z,5.25
2019-04-14T17:43:21.426Z,6.53
2019-04-14T17:45:55.435Z,8.50
2019-04-14T17:48:42.960Z,14.25
2019-04-14T17:51:16.861Z,15.80
2019-04-14T17:53:48.124Z,14.58
2019-04-14T17:56:25.493Z,14.18
2019-04-14T17:58:57.057Z,10.60
2019-04-14T18:01:28.611Z,9.00
2019-04-14T18:04:00.168Z,9.50
2019-04-14T18:06:33.053Z,10.85
2019-04-14T18:09:10.133Z,9.73
2019-04-14T18:11:50.493Z,11.00
2019-04-14T18:14:30.553Z,11.63
2019-04-14T18:17:17.157Z,11.43
2019-04-14T18:19:48.403Z,12.05
2019-04-14T18:22:18.108Z,11.53
2019-04-14T18:24:47.819Z,13.35
2019-04-14T18:27:17.429Z,12.93
2019-04-14T18:29:51.438Z,11.57
2019-04-14T18:32:25.451Z,14.13
2019-04-14T18:35:03.704Z,15.43
2019-04-14T18:37:36.133Z,15.72
2019-04-14T18:40:10.255Z,14.05
2019-04-14T18:42:41.698Z,14.85
2019-04-14T18:45:16.117Z,12.47
2019-04-14T18:48:03.735Z,12.98
2019-04-14T18:50:44.212Z,12.55
2019-04-14T18:53:15.457Z,12.00
2019-04-14T18:58:01.366Z,13.90
2019-04-14T19:00:49.199Z,10.75
2019-04-14T19:03:18.908Z,10.08
2019-04-14T19:05:48.518Z,9.10
2019-04-14T19:08:18.227Z,7.03
2019-04-14T19:10:54.592Z,6.65
2019-04-14T19:13:31.676Z,10.93
2019-04-14T19:16:05.584Z,11.57
2019-04-14T19:18:36.832Z,12.40
2019-04-14T19:21:08.078Z,7.97
2019-04-14T19:23:37.788Z,9.20
2019-04-14T19:26:07.805Z,11.25
2019-04-14T19:28:38.949Z,12.18
2019-04-14T19:31:08.660Z,11.90
2019-04-14T19:33:39.290Z,9.03
2019-04-14T19:36:09.746Z,9.83
2019-04-14T19:38:39.427Z,8.15
2019-04-14T19:41:09.036Z,8.25
2019-04-14T19:43:38.641Z,6.92
2019-04-14T19:46:08.355Z,8.73
2019-04-14T19:48:38.574Z,9.95
2019-04-14T19:51:08.183Z,8.03
2019-04-14T19:53:37.829Z,9.20
2019-04-14T19:56:07.602Z,6.45
2019-04-14T19:58:37.212Z,8.80
2019-04-14T20:01:07.948Z,8.90
2019-04-14T20:03:39.195Z,7.78
2019-04-14T20:06:08.797Z,7.50
2019-04-14T20:08:40.967Z,11.90
2019-04-14T20:11:11.293Z,7.67
2019-04-14T20:13:46.620Z,7.70
2019-04-14T20:16:35.599Z,9.55
2019-04-14T20:19:23.226Z,10.05
2019-04-14T20:21:57.289Z,8.78
2019-04-14T20:24:34.327Z,7.08
2019-04-14T20:27:05.669Z,8.15
2019-04-14T20:29:49.106Z,7.87
2019-04-14T20:32:29.346Z,7.85
2019-04-14T20:35:00.301Z,8.25
2019-04-14T20:37:30.212Z,8.28
2019-04-14T20:39:59.925Z,7.30
2019-04-14T20:42:30.658Z,9.53
2019-04-14T20:45:00.472Z,8.05
2019-04-14T20:47:30.077Z,8.55
2019-04-14T20:49:59.787Z,10.28
2019-04-14T20:52:29.398Z,10.58
2019-04-14T20:54:59.107Z,8.83
2019-04-14T20:57:28.818Z,8.73
2019-04-14T20:59:59.447Z,8.50
2019-04-14T21:02:30.695Z,12.55
2019-04-14T21:05:04.488Z,8.13
2019-04-14T21:07:52.132Z,9.13
2019-04-14T21:10:23.377Z,23.85
2019-04-14T21:12:54.726Z,8.43
2019-04-14T21:15:27.098Z,9.93
2019-04-14T21:18:07.152Z,9.45
2019-04-14T21:20:41.164Z,15.78
2019-04-14T21:23:15.276Z,15.78
2019-04-14T21:26:00.786Z,15.48
2019-04-14T21:28:45.484Z,12.13
2019-04-14T21:31:17.792Z,12.35
2019-04-14T21:33:49.043Z,12.07
2019-04-14T21:36:32.572Z,12.20
2019-04-14T21:39:06.787Z,11.75
2019-04-14T21:41:38.034Z,12.15
2019-04-14T21:44:07.745Z,13.53
2019-04-14T21:46:37.351Z,13.80
2019-04-14T21:49:06.958Z,12.55
2019-04-14T21:51:56.126Z,13.03
2019-04-14T21:54:25.738Z,11.78
2019-04-14T21:57:15.002Z,11.25
2019-04-14T22:00:02.625Z,11.65
2019-04-14T22:02:51.695Z,8.78
2019-04-14T22:05:40.970Z,10.15
2019-04-14T22:08:25.430Z,10.70
2019-04-14T22:10:57.998Z,8.73
2019-04-14T22:13:27.608Z,8.50
2019-04-14T22:15:57.330Z,9.08
2019-04-14T22:18:27.231Z,7.85
2019-04-14T22:20:56.842Z,9.45
2019-04-14T22:23:26.447Z,8.95
2019-04-14T22:25:56.055Z,10.82
2019-04-14T22:28:25.766Z,9.25
2019-04-14T22:30:55.373Z,9.30
2019-04-14T22:33:24.983Z,9.60
2019-04-14T22:35:54.692Z,10.40
2019-04-14T22:38:24.402Z,10.55
2019-04-14T22:40:54.111Z,9.63
2019-04-14T22:43:23.822Z,11.85
2019-04-14T22:45:53.431Z,10.00
2019-04-14T22:48:23.140Z,10.63
2019-04-14T22:50:53.774Z,10.93
2019-04-14T22:53:23.484Z,11.57
2019-04-14T22:55:53.192Z,9.33
2019-04-14T22:58:22.804Z,8.75
2019-04-14T23:00:55.468Z,9.95
2019-04-14T23:03:43.110Z,9.95
2019-04-14T23:06:29.410Z,10.20
2019-04-14T23:09:18.890Z,12.95
2019-04-14T23:12:06.514Z,11.97
2019-04-14T23:14:46.467Z,11.45
2019-04-14T23:17:20.363Z,13.70
2019-04-14T23:20:03.703Z,11.22
2019-04-14T23:22:51.231Z,10.20
2019-04-14T23:25:21.044Z,11.70
2019-04-14T23:27:50.755Z,11.10
2019-04-14T23:30:20.466Z,10.08
2019-04-14T23:32:50.992Z,10.72
2019-04-14T23:35:20.705Z,11.38
2019-04-14T23:37:50.417Z,14.60
2019-04-14T23:40:20.125Z,11.63
2019-04-14T23:42:49.732Z,11.33
2019-04-14T23:45:19.442Z,11.20
2019-04-14T23:47:49.051Z,10.03
2019-04-14T23:50:18.862Z,10.53
2019-04-14T23:52:48.470Z,11.68
2019-04-14T23:55:18.081Z,10.80
2019-04-14T23:57:47.688Z,10.58
